Impacts TAF Board INFO
FOR SITUATIONAL AWARENESS. NOT TO BE USED FOR FLIGHT PLANNING PURPOSES.
IDs:

KBHM - Birmingham Intl, AL, US

Issued at 0520 UTC 24 Nov 2017
Updated at 0720 UTC 24 Nov 2017
Potential Impact None Slight Moderate High
Time0653Z 24/08Z 24/09Z 24/10Z 24/11Z 24/12Z 24/13Z 24/14Z 24/15Z 24/16Z 24/17Z 24/18Z 24/19Z 24/20Z>>
Type OBS PRVL PRVL PRVL PRVL PRVL PRVL PRVL PRVL PRVL PRVL PRVL PRVL PRVL
VIS 10 >6 >6 >6 >6 >6 >6 >6 >6 >6 >6 >6 >6 >6
CIG -- -- -- -- -- -- -- -- -- -- -- -- -- --
Cover CLR SKC SKC SKC SKC SKC SKC SKC SKC FEW FEW FEW FEW FEW
FltCat VFR VFR VFR VFR VFR VFR VFR VFR VFR VFR VFR VFR VFR VFR
WX -- -- -- -- -- -- -- -- -- -- -- -- -- --
WDir VRB VRB VRB VRB VRB VRB VRB VRB VRB 200 200 200 200 200
WSpd 0 0 0 0 0 0 0 0 0 5 5 5 5 5
WGst -- -- -- -- -- -- -- -- -- -- -- -- -- --

Raw TAF
KBHM 240520Z 2406/2506 00000KT P6SM SKC
  FM241600 20005KT P6SM FEW250
  FM250000 00000KT P6SM SKC


Raw METAR
KBHM 240653Z 00000KT 10SM CLR 03/02 A3004 RMK AO2 SLP172 T00280017
KBHM 240553Z 00000KT 9SM CLR 03/02 A3005 RMK AO2 SLP176 T00280017 10089 20028 401611022 58004
KBHM 240453Z 00000KT 9SM CLR 03/02 A3006 RMK AO2 SLP178 T00330022

METAR Board
Radar Display
Forecast Discussion

FOR SITUATIONAL AWARENESS. NOT TO BE USED FOR FLIGHT PLANNING PURPOSES.